sensor_id;sensor_type;location;lat;lon;timestamp;P1;durP1;ratioP1;P2;durP2;ratioP2
3257;SDS011;1641;51.306;12.384;2022-11-20T00:00:12;55.55;;;26.65;;
3257;SDS011;1641;51.306;12.384;2022-11-20T00:02:37;56.88;;;25.50;;
3257;SDS011;1641;51.306;12.384;2022-11-20T00:05:03;41.30;;;21.67;;
3257;SDS011;1641;51.306;12.384;2022-11-20T00:07:28;44.05;;;21.42;;
3257;SDS011;1641;51.306;12.384;2022-11-20T00:09:54;44.60;;;21.95;;
3257;SDS011;1641;51.306;12.384;2022-11-20T00:12:19;42.15;;;21.30;;
3257;SDS011;1641;51.306;12.384;2022-11-20T00:14:45;42.55;;;20.65;;
3257;SDS011;1641;51.306;12.384;2022-11-20T00:17:10;42.30;;;21.30;;
3257;SDS011;1641;51.306;12.384;2022-11-20T00:19:35;38.55;;;20.75;;
3257;SDS011;1641;51.306;12.384;2022-11-20T00:22:00;41.05;;;19.92;;
3257;SDS011;1641;51.306;12.384;2022-11-20T00:24:26;44.60;;;22.63;;
3257;SDS011;1641;51.306;12.384;2022-11-20T00:26:51;48.22;;;23.27;;
3257;SDS011;1641;51.306;12.384;2022-11-20T00:29:16;49.38;;;23.50;;
3257;SDS011;1641;51.306;12.384;2022-11-20T00:31:45;42.75;;;23.17;;
3257;SDS011;1641;51.306;12.384;2022-11-20T00:34:10;44.83;;;23.48;;
3257;SDS011;1641;51.306;12.384;2022-11-20T00:36:35;47.08;;;23.38;;
3257;SDS011;1641;51.306;12.384;2022-11-20T00:39:01;45.45;;;22.58;;
3257;SDS011;1641;51.306;12.384;2022-11-20T00:41:27;42.90;;;21.42;;
3257;SDS011;1641;51.306;12.384;2022-11-20T00:43:54;37.70;;;21.63;;
3257;SDS011;1641;51.306;12.384;2022-11-20T00:46:22;39.90;;;19.75;;
3257;SDS011;1641;51.306;12.384;2022-11-20T00:48:51;43.75;;;21.30;;
3257;SDS011;1641;51.306;12.384;2022-11-20T00:51:17;39.08;;;19.73;;
3257;SDS011;1641;51.306;12.384;2022-11-20T00:53:45;34.08;;;18.23;;
3257;SDS011;1641;51.306;12.384;2022-11-20T00:56:12;39.47;;;20.88;;
3257;SDS011;1641;51.306;12.384;2022-11-20T00:58:39;35.38;;;18.55;;
3257;SDS011;1641;51.306;12.384;2022-11-20T01:01:07;40.10;;;21.08;;
3257;SDS011;1641;51.306;12.384;2022-11-20T01:03:35;39.83;;;19.88;;
3257;SDS011;1641;51.306;12.384;2022-11-20T01:06:21;39.65;;;20.77;;
3257;SDS011;1641;51.306;12.384;2022-11-20T01:08:47;38.47;;;19.02;;
3257;SDS011;1641;51.306;12.384;2022-11-20T01:11:17;41.85;;;19.17;;
3257;SDS011;1641;51.306;12.384;2022-11-20T01:13:45;38.30;;;18.98;;
3257;SDS011;1641;51.306;12.384;2022-11-20T01:16:19;36.42;;;19.73;;
3257;SDS011;1641;51.306;12.384;2022-11-20T01:18:52;39.47;;;19.30;;
3257;SDS011;1641;51.306;12.384;2022-11-20T01:21:20;45.25;;;21.85;;
3257;SDS011;1641;51.306;12.384;2022-11-20T01:23:51;45.13;;;20.73;;
3257;SDS011;1641;51.306;12.384;2022-11-20T01:26:23;40.83;;;20.67;;
3257;SDS011;1641;51.306;12.384;2022-11-20T01:28:53;47.20;;;22.90;;
3257;SDS011;1641;51.306;12.384;2022-11-20T01:31:22;44.90;;;21.50;;
3257;SDS011;1641;51.306;12.384;2022-11-20T01:33:51;56.20;;;25.23;;
3257;SDS011;1641;51.306;12.384;2022-11-20T01:36:19;53.88;;;24.15;;
3257;SDS011;1641;51.306;12.384;2022-11-20T01:38:52;49.78;;;23.10;;
3257;SDS011;1641;51.306;12.384;2022-11-20T01:41:19;46.50;;;23.05;;
3257;SDS011;1641;51.306;12.384;2022-11-20T01:44:03;40.25;;;21.45;;
3257;SDS011;1641;51.306;12.384;2022-11-20T01:46:31;52.33;;;22.70;;
3257;SDS011;1641;51.306;12.384;2022-11-20T01:49:01;51.83;;;22.80;;
3257;SDS011;1641;51.306;12.384;2022-11-20T01:51:49;41.42;;;21.17;;
3257;SDS011;1641;51.306;12.384;2022-11-20T01:54:19;43.78;;;20.67;;
3257;SDS011;1641;51.306;12.384;2022-11-20T01:56:53;58.30;;;24.52;;
3257;SDS011;1641;51.306;12.384;2022-11-20T01:59:22;39.20;;;20.48;;
3257;SDS011;1641;51.306;12.384;2022-11-20T02:01:50;37.10;;;19.75;;
3257;SDS011;1641;51.306;12.384;2022-11-20T02:04:16;39.63;;;21.20;;
3257;SDS011;1641;51.306;12.384;2022-11-20T02:09:14;46.75;;;21.05;;
3257;SDS011;1641;51.306;12.384;2022-11-20T02:11:40;41.90;;;20.25;;
3257;SDS011;1641;51.306;12.384;2022-11-20T02:14:06;43.28;;;20.15;;
3257;SDS011;1641;51.306;12.384;2022-11-20T02:16:36;36.33;;;18.50;;
3257;SDS011;1641;51.306;12.384;2022-11-20T02:19:08;41.40;;;21.17;;
3257;SDS011;1641;51.306;12.384;2022-11-20T02:22:00;36.40;;;19.88;;
3257;SDS011;1641;51.306;12.384;2022-11-20T02:24:30;39.30;;;19.88;;
3257;SDS011;1641;51.306;12.384;2022-11-20T02:27:12;51.47;;;21.75;;
3257;SDS011;1641;51.306;12.384;2022-11-20T02:29:46;45.80;;;19.98;;
3257;SDS011;1641;51.306;12.384;2022-11-20T02:32:22;41.38;;;20.77;;
3257;SDS011;1641;51.306;12.384;2022-11-20T02:34:51;42.65;;;19.60;;
3257;SDS011;1641;51.306;12.384;2022-11-20T02:37:17;40.90;;;20.58;;
3257;SDS011;1641;51.306;12.384;2022-11-20T02:39:44;38.17;;;20.38;;
3257;SDS011;1641;51.306;12.384;2022-11-20T02:42:10;45.70;;;21.55;;
3257;SDS011;1641;51.306;12.384;2022-11-20T02:44:36;45.97;;;21.10;;
3257;SDS011;1641;51.306;12.384;2022-11-20T02:47:01;42.83;;;19.90;;
3257;SDS011;1641;51.306;12.384;2022-11-20T02:49:27;49.47;;;20.55;;
3257;SDS011;1641;51.306;12.384;2022-11-20T02:51:52;44.35;;;22.25;;
3257;SDS011;1641;51.306;12.384;2022-11-20T02:54:18;44.80;;;19.98;;
3257;SDS011;1641;51.306;12.384;2022-11-20T02:56:46;45.95;;;21.50;;
3257;SDS011;1641;51.306;12.384;2022-11-20T02:59:14;46.22;;;20.85;;
3257;SDS011;1641;51.306;12.384;2022-11-20T03:01:40;50.10;;;22.90;;
3257;SDS011;1641;51.306;12.384;2022-11-20T03:04:05;48.83;;;21.33;;
3257;SDS011;1641;51.306;12.384;2022-11-20T03:06:31;44.90;;;20.98;;
3257;SDS011;1641;51.306;12.384;2022-11-20T03:08:57;45.30;;;20.00;;
3257;SDS011;1641;51.306;12.384;2022-11-20T03:11:22;51.13;;;21.65;;
3257;SDS011;1641;51.306;12.384;2022-11-20T03:13:47;48.30;;;21.45;;
3257;SDS011;1641;51.306;12.384;2022-11-20T03:16:14;51.50;;;22.52;;
3257;SDS011;1641;51.306;12.384;2022-11-20T03:18:42;40.97;;;20.80;;
3257;SDS011;1641;51.306;12.384;2022-11-20T03:21:09;51.85;;;21.58;;
3257;SDS011;1641;51.306;12.384;2022-11-20T03:23:35;46.92;;;22.15;;
3257;SDS011;1641;51.306;12.384;2022-11-20T03:26:12;46.50;;;21.90;;
3257;SDS011;1641;51.306;12.384;2022-11-20T03:28:45;47.00;;;21.58;;
3257;SDS011;1641;51.306;12.384;2022-11-20T03:31:15;45.17;;;19.88;;
3257;SDS011;1641;51.306;12.384;2022-11-20T03:33:42;47.83;;;22.02;;
3257;SDS011;1641;51.306;12.384;2022-11-20T03:36:08;45.35;;;20.77;;
3257;SDS011;1641;51.306;12.384;2022-11-20T03:38:36;50.33;;;20.85;;
3257;SDS011;1641;51.306;12.384;2022-11-20T03:41:06;48.25;;;22.33;;
3257;SDS011;1641;51.306;12.384;2022-11-20T03:43:34;47.55;;;22.17;;
3257;SDS011;1641;51.306;12.384;2022-11-20T03:46:03;49.92;;;22.33;;
3257;SDS011;1641;51.306;12.384;2022-11-20T03:48:29;45.75;;;20.88;;
3257;SDS011;1641;51.306;12.384;2022-11-20T03:53:58;48.58;;;21.73;;
3257;SDS011;1641;51.306;12.384;2022-11-20T03:56:26;49.13;;;22.48;;
3257;SDS011;1641;51.306;12.384;2022-11-20T03:58:53;43.33;;;21.27;;
3257;SDS011;1641;51.306;12.384;2022-11-20T04:01:20;40.80;;;21.20;;
3257;SDS011;1641;51.306;12.384;2022-11-20T04:03:54;43.85;;;20.73;;
3257;SDS011;1641;51.306;12.384;2022-11-20T04:06:21;46.20;;;20.77;;
3257;SDS011;1641;51.306;12.384;2022-11-20T04:08:48;44.45;;;22.27;;
3257;SDS011;1641;51.306;12.384;2022-11-20T04:11:25;47.00;;;23.90;;
3257;SDS011;1641;51.306;12.384;2022-11-20T04:13:55;48.87;;;21.70;;
3257;SDS011;1641;51.306;12.384;2022-11-20T04:16:23;46.97;;;21.60;;
3257;SDS011;1641;51.306;12.384;2022-11-20T04:18:53;45.22;;;21.33;;
3257;SDS011;1641;51.306;12.384;2022-11-20T04:21:19;49.03;;;21.55;;
3257;SDS011;1641;51.306;12.384;2022-11-20T04:23:45;47.22;;;22.38;;
3257;SDS011;1641;51.306;12.384;2022-11-20T04:26:11;42.28;;;20.95;;
3257;SDS011;1641;51.306;12.384;2022-11-20T04:28:37;48.00;;;21.92;;
3257;SDS011;1641;51.306;12.384;2022-11-20T04:31:07;52.67;;;22.67;;
3257;SDS011;1641;51.306;12.384;2022-11-20T04:33:34;45.47;;;22.38;;
3257;SDS011;1641;51.306;12.384;2022-11-20T04:36:07;50.10;;;22.38;;
3257;SDS011;1641;51.306;12.384;2022-11-20T04:38:35;48.63;;;23.15;;
3257;SDS011;1641;51.306;12.384;2022-11-20T04:41:02;51.03;;;24.58;;
3257;SDS011;1641;51.306;12.384;2022-11-20T04:43:29;53.28;;;23.13;;
3257;SDS011;1641;51.306;12.384;2022-11-20T04:45:56;49.63;;;23.60;;
3257;SDS011;1641;51.306;12.384;2022-11-20T04:48:22;50.80;;;23.48;;
3257;SDS011;1641;51.306;12.384;2022-11-20T04:50:48;49.72;;;23.65;;
3257;SDS011;1641;51.306;12.384;2022-11-20T04:53:14;56.55;;;24.77;;
3257;SDS011;1641;51.306;12.384;2022-11-20T04:55:39;52.00;;;23.02;;
3257;SDS011;1641;51.306;12.384;2022-11-20T04:58:05;44.80;;;22.73;;
3257;SDS011;1641;51.306;12.384;2022-11-20T05:00:30;46.83;;;21.35;;
3257;SDS011;1641;51.306;12.384;2022-11-20T05:02:55;52.97;;;22.48;;
3257;SDS011;1641;51.306;12.384;2022-11-20T05:05:21;48.75;;;21.83;;
3257;SDS011;1641;51.306;12.384;2022-11-20T05:07:46;55.80;;;24.23;;
3257;SDS011;1641;51.306;12.384;2022-11-20T05:10:14;47.75;;;22.25;;
3257;SDS011;1641;51.306;12.384;2022-11-20T05:12:40;47.58;;;23.58;;
3257;SDS011;1641;51.306;12.384;2022-11-20T05:15:05;51.28;;;23.80;;
3257;SDS011;1641;51.306;12.384;2022-11-20T05:17:31;46.97;;;21.90;;
3257;SDS011;1641;51.306;12.384;2022-11-20T05:19:56;44.15;;;22.48;;
3257;SDS011;1641;51.306;12.384;2022-11-20T05:22:21;45.08;;;22.00;;
3257;SDS011;1641;51.306;12.384;2022-11-20T05:24:47;49.03;;;22.45;;
3257;SDS011;1641;51.306;12.384;2022-11-20T05:27:12;47.92;;;21.13;;
3257;SDS011;1641;51.306;12.384;2022-11-20T05:29:37;51.97;;;22.25;;
3257;SDS011;1641;51.306;12.384;2022-11-20T05:32:03;39.95;;;20.83;;
3257;SDS011;1641;51.306;12.384;2022-11-20T05:34:30;47.47;;;22.33;;
3257;SDS011;1641;51.306;12.384;2022-11-20T05:36:55;46.40;;;22.42;;
3257;SDS011;1641;51.306;12.384;2022-11-20T05:39:30;46.83;;;22.20;;
3257;SDS011;1641;51.306;12.384;2022-11-20T05:41:58;49.72;;;21.73;;
3257;SDS011;1641;51.306;12.384;2022-11-20T05:44:42;47.85;;;22.52;;
3257;SDS011;1641;51.306;12.384;2022-11-20T05:47:10;44.70;;;22.00;;
3257;SDS011;1641;51.306;12.384;2022-11-20T05:49:36;49.55;;;21.88;;
3257;SDS011;1641;51.306;12.384;2022-11-20T05:52:01;49.25;;;21.10;;
3257;SDS011;1641;51.306;12.384;2022-11-20T05:54:26;41.28;;;19.80;;
3257;SDS011;1641;51.306;12.384;2022-11-20T05:56:51;43.20;;;20.55;;
3257;SDS011;1641;51.306;12.384;2022-11-20T05:59:17;51.38;;;20.52;;
3257;SDS011;1641;51.306;12.384;2022-11-20T06:01:42;49.08;;;21.58;;
3257;SDS011;1641;51.306;12.384;2022-11-20T06:04:07;44.35;;;21.58;;
3257;SDS011;1641;51.306;12.384;2022-11-20T06:06:33;47.10;;;22.40;;
3257;SDS011;1641;51.306;12.384;2022-11-20T06:08:58;46.85;;;21.38;;
3257;SDS011;1641;51.306;12.384;2022-11-20T06:11:24;48.70;;;22.27;;
3257;SDS011;1641;51.306;12.384;2022-11-20T06:13:50;49.17;;;22.20;;
3257;SDS011;1641;51.306;12.384;2022-11-20T06:16:16;45.55;;;20.35;;
3257;SDS011;1641;51.306;12.384;2022-11-20T06:18:44;63.35;;;27.83;;
3257;SDS011;1641;51.306;12.384;2022-11-20T06:21:11;45.75;;;21.70;;
3257;SDS011;1641;51.306;12.384;2022-11-20T06:23:38;47.00;;;20.65;;
3257;SDS011;1641;51.306;12.384;2022-11-20T06:26:11;46.35;;;20.88;;
3257;SDS011;1641;51.306;12.384;2022-11-20T06:28:38;44.70;;;22.60;;
3257;SDS011;1641;51.306;12.384;2022-11-20T06:31:05;45.83;;;22.85;;
3257;SDS011;1641;51.306;12.384;2022-11-20T06:33:31;49.13;;;22.30;;
3257;SDS011;1641;51.306;12.384;2022-11-20T06:35:57;39.72;;;19.98;;
3257;SDS011;1641;51.306;12.384;2022-11-20T06:38:24;50.50;;;22.70;;
3257;SDS011;1641;51.306;12.384;2022-11-20T06:40:50;46.53;;;21.88;;
3257;SDS011;1641;51.306;12.384;2022-11-20T06:43:15;49.63;;;22.58;;
3257;SDS011;1641;51.306;12.384;2022-11-20T06:45:40;50.13;;;21.80;;
3257;SDS011;1641;51.306;12.384;2022-11-20T06:48:05;55.42;;;23.98;;
3257;SDS011;1641;51.306;12.384;2022-11-20T06:50:31;52.03;;;24.00;;
3257;SDS011;1641;51.306;12.384;2022-11-20T06:52:56;48.67;;;22.27;;
3257;SDS011;1641;51.306;12.384;2022-11-20T06:55:24;46.33;;;22.25;;
3257;SDS011;1641;51.306;12.384;2022-11-20T06:57:50;48.30;;;21.83;;
3257;SDS011;1641;51.306;12.384;2022-11-20T07:00:15;57.40;;;25.10;;
3257;SDS011;1641;51.306;12.384;2022-11-20T07:02:40;49.53;;;22.05;;
3257;SDS011;1641;51.306;12.384;2022-11-20T07:05:09;50.60;;;21.27;;
3257;SDS011;1641;51.306;12.384;2022-11-20T07:07:37;47.63;;;23.10;;
3257;SDS011;1641;51.306;12.384;2022-11-20T07:10:02;52.58;;;21.75;;
3257;SDS011;1641;51.306;12.384;2022-11-20T07:12:28;43.67;;;21.50;;
3257;SDS011;1641;51.306;12.384;2022-11-20T07:14:53;50.10;;;22.25;;
3257;SDS011;1641;51.306;12.384;2022-11-20T07:17:18;50.92;;;21.17;;
3257;SDS011;1641;51.306;12.384;2022-11-20T07:19:44;49.22;;;23.40;;
3257;SDS011;1641;51.306;12.384;2022-11-20T07:22:09;49.47;;;20.90;;
3257;SDS011;1641;51.306;12.384;2022-11-20T07:24:34;52.55;;;21.90;;
3257;SDS011;1641;51.306;12.384;2022-11-20T07:27:00;48.33;;;21.98;;
3257;SDS011;1641;51.306;12.384;2022-11-20T07:29:25;46.63;;;21.33;;
3257;SDS011;1641;51.306;12.384;2022-11-20T07:31:50;43.00;;;19.92;;
3257;SDS011;1641;51.306;12.384;2022-11-20T07:34:16;47.03;;;21.95;;
3257;SDS011;1641;51.306;12.384;2022-11-20T07:36:41;47.03;;;21.80;;
3257;SDS011;1641;51.306;12.384;2022-11-20T07:39:06;50.17;;;22.33;;
3257;SDS011;1641;51.306;12.384;2022-11-20T07:41:32;57.05;;;24.13;;
3257;SDS011;1641;51.306;12.384;2022-11-20T07:43:57;52.22;;;21.85;;
3257;SDS011;1641;51.306;12.384;2022-11-20T07:46:23;44.78;;;21.17;;
3257;SDS011;1641;51.306;12.384;2022-11-20T07:48:48;47.38;;;21.13;;
3257;SDS011;1641;51.306;12.384;2022-11-20T07:51:14;47.47;;;22.08;;
3257;SDS011;1641;51.306;12.384;2022-11-20T07:53:40;50.42;;;22.98;;
3257;SDS011;1641;51.306;12.384;2022-11-20T07:56:05;47.10;;;22.30;;
3257;SDS011;1641;51.306;12.384;2022-11-20T07:58:31;45.53;;;21.15;;
3257;SDS011;1641;51.306;12.384;2022-11-20T08:01:03;40.00;;;21.88;;
3257;SDS011;1641;51.306;12.384;2022-11-20T08:03:39;38.22;;;20.20;;
3257;SDS011;1641;51.306;12.384;2022-11-20T08:06:04;47.72;;;23.60;;
3257;SDS011;1641;51.306;12.384;2022-11-20T08:08:30;38.53;;;20.15;;
3257;SDS011;1641;51.306;12.384;2022-11-20T08:10:58;39.22;;;19.63;;
3257;SDS011;1641;51.306;12.384;2022-11-20T08:13:42;33.95;;;18.23;;
3257;SDS011;1641;51.306;12.384;2022-11-20T08:16:27;34.50;;;17.52;;
3257;SDS011;1641;51.306;12.384;2022-11-20T08:18:52;30.02;;;18.58;;
3257;SDS011;1641;51.306;12.384;2022-11-20T08:21:18;31.35;;;19.08;;
3257;SDS011;1641;51.306;12.384;2022-11-20T08:23:43;33.08;;;18.42;;
3257;SDS011;1641;51.306;12.384;2022-11-20T08:26:08;36.60;;;18.67;;
3257;SDS011;1641;51.306;12.384;2022-11-20T08:28:34;32.20;;;18.33;;
3257;SDS011;1641;51.306;12.384;2022-11-20T08:30:59;31.48;;;17.52;;
3257;SDS011;1641;51.306;12.384;2022-11-20T08:33:26;30.52;;;16.80;;
3257;SDS011;1641;51.306;12.384;2022-11-20T08:35:51;32.50;;;17.15;;
3257;SDS011;1641;51.306;12.384;2022-11-20T08:38:16;33.35;;;17.88;;
3257;SDS011;1641;51.306;12.384;2022-11-20T08:40:42;32.58;;;19.60;;
3257;SDS011;1641;51.306;12.384;2022-11-20T08:43:28;30.92;;;15.90;;
3257;SDS011;1641;51.306;12.384;2022-11-20T08:45:56;29.83;;;17.52;;
3257;SDS011;1641;51.306;12.384;2022-11-20T08:48:21;32.40;;;16.38;;
3257;SDS011;1641;51.306;12.384;2022-11-20T08:50:47;27.30;;;16.63;;
3257;SDS011;1641;51.306;12.384;2022-11-20T08:53:12;26.65;;;16.63;;
3257;SDS011;1641;51.306;12.384;2022-11-20T08:55:37;30.02;;;16.38;;
3257;SDS011;1641;51.306;12.384;2022-11-20T08:58:04;29.98;;;17.55;;
3257;SDS011;1641;51.306;12.384;2022-11-20T09:00:31;27.10;;;15.48;;
3257;SDS011;1641;51.306;12.384;2022-11-20T09:02:57;27.15;;;15.40;;
3257;SDS011;1641;51.306;12.384;2022-11-20T09:05:23;21.90;;;13.82;;
3257;SDS011;1641;51.306;12.384;2022-11-20T09:07:49;28.73;;;15.35;;
3257;SDS011;1641;51.306;12.384;2022-11-20T09:10:14;33.47;;;18.80;;
3257;SDS011;1641;51.306;12.384;2022-11-20T09:12:39;35.85;;;20.45;;
3257;SDS011;1641;51.306;12.384;2022-11-20T09:15:05;28.85;;;15.80;;
3257;SDS011;1641;51.306;12.384;2022-11-20T09:17:30;29.50;;;17.33;;
3257;SDS011;1641;51.306;12.384;2022-11-20T09:19:56;29.48;;;15.82;;
3257;SDS011;1641;51.306;12.384;2022-11-20T09:22:21;35.33;;;14.93;;
3257;SDS011;1641;51.306;12.384;2022-11-20T09:24:46;27.60;;;16.30;;
3257;SDS011;1641;51.306;12.384;2022-11-20T09:27:11;28.83;;;15.57;;
3257;SDS011;1641;51.306;12.384;2022-11-20T09:29:37;27.77;;;14.63;;
3257;SDS011;1641;51.306;12.384;2022-11-20T09:32:02;31.98;;;15.45;;
3257;SDS011;1641;51.306;12.384;2022-11-20T09:34:27;28.63;;;14.88;;
3257;SDS011;1641;51.306;12.384;2022-11-20T09:36:53;29.80;;;15.20;;
3257;SDS011;1641;51.306;12.384;2022-11-20T09:39:18;27.50;;;12.65;;
3257;SDS011;1641;51.306;12.384;2022-11-20T09:48:07;29.25;;;15.77;;
3257;SDS011;1641;51.306;12.384;2022-11-20T09:50:31;30.60;;;15.48;;
3257;SDS011;1641;51.306;12.384;2022-11-20T09:53:11;29.40;;;14.73;;
3257;SDS011;1641;51.306;12.384;2022-11-20T09:55:49;27.45;;;14.65;;
3257;SDS011;1641;51.306;12.384;2022-11-20T10:01:14;24.60;;;13.80;;
3257;SDS011;1641;51.306;12.384;2022-11-20T10:06:31;23.95;;;13.73;;
3257;SDS011;1641;51.306;12.384;2022-11-20T10:09:00;28.15;;;14.75;;
3257;SDS011;1641;51.306;12.384;2022-11-20T10:14:47;26.13;;;14.30;;
3257;SDS011;1641;51.306;12.384;2022-11-20T10:17:32;29.77;;;14.18;;
3257;SDS011;1641;51.306;12.384;2022-11-20T10:25:26;23.67;;;13.25;;
3257;SDS011;1641;51.306;12.384;2022-11-20T10:30:30;27.17;;;11.90;;
3257;SDS011;1641;51.306;12.384;2022-11-20T10:35:52;20.35;;;12.27;;
3257;SDS011;1641;51.306;12.384;2022-11-20T10:38:44;18.85;;;11.20;;
3257;SDS011;1641;51.306;12.384;2022-11-20T10:41:24;22.48;;;11.52;;
3257;SDS011;1641;51.306;12.384;2022-11-20T10:44:14;22.25;;;11.88;;
3257;SDS011;1641;51.306;12.384;2022-11-20T10:47:04;26.05;;;13.45;;
3257;SDS011;1641;51.306;12.384;2022-11-20T10:49:30;19.60;;;11.00;;
3257;SDS011;1641;51.306;12.384;2022-11-20T10:52:13;22.45;;;11.15;;
3257;SDS011;1641;51.306;12.384;2022-11-20T10:55:20;17.95;;;10.82;;
3257;SDS011;1641;51.306;12.384;2022-11-20T10:57:52;18.88;;;10.32;;
3257;SDS011;1641;51.306;12.384;2022-11-20T11:00:19;20.17;;;10.98;;
3257;SDS011;1641;51.306;12.384;2022-11-20T11:02:51;17.08;;;11.23;;
3257;SDS011;1641;51.306;12.384;2022-11-20T11:07:53;21.33;;;12.32;;
3257;SDS011;1641;51.306;12.384;2022-11-20T11:10:37;19.00;;;10.68;;
3257;SDS011;1641;51.306;12.384;2022-11-20T11:15:46;16.55;;;9.75;;
3257;SDS011;1641;51.306;12.384;2022-11-20T11:18:11;17.77;;;10.35;;
3257;SDS011;1641;51.306;12.384;2022-11-20T11:20:51;15.45;;;10.23;;
3257;SDS011;1641;51.306;12.384;2022-11-20T11:23:29;14.65;;;9.55;;
3257;SDS011;1641;51.306;12.384;2022-11-20T11:26:06;13.77;;;8.30;;
3257;SDS011;1641;51.306;12.384;2022-11-20T11:28:57;14.13;;;7.70;;
3257;SDS011;1641;51.306;12.384;2022-11-20T11:31:31;12.88;;;7.75;;
3257;SDS011;1641;51.306;12.384;2022-11-20T11:34:04;14.23;;;7.65;;
3257;SDS011;1641;51.306;12.384;2022-11-20T11:36:37;16.15;;;9.07;;
3257;SDS011;1641;51.306;12.384;2022-11-20T11:39:03;19.30;;;9.88;;
3257;SDS011;1641;51.306;12.384;2022-11-20T11:41:32;13.82;;;8.52;;
3257;SDS011;1641;51.306;12.384;2022-11-20T11:44:03;16.75;;;10.15;;
3257;SDS011;1641;51.306;12.384;2022-11-20T11:46:58;16.58;;;9.73;;
3257;SDS011;1641;51.306;12.384;2022-11-20T11:49:24;22.42;;;10.30;;
3257;SDS011;1641;51.306;12.384;2022-11-20T11:52:03;15.10;;;10.35;;
3257;SDS011;1641;51.306;12.384;2022-11-20T11:57:39;19.38;;;10.32;;
3257;SDS011;1641;51.306;12.384;2022-11-20T12:00:13;16.10;;;9.68;;
3257;SDS011;1641;51.306;12.384;2022-11-20T12:10:57;43.55;;;21.63;;
3257;SDS011;1641;51.306;12.384;2022-11-20T12:13:22;39.90;;;18.08;;
3257;SDS011;1641;51.306;12.384;2022-11-20T12:15:57;21.00;;;12.82;;
3257;SDS011;1641;51.306;12.384;2022-11-20T12:18:23;17.98;;;9.40;;
3257;SDS011;1641;51.306;12.384;2022-11-20T12:21:01;18.20;;;9.57;;
3257;SDS011;1641;51.306;12.384;2022-11-20T12:23:53;15.57;;;9.30;;
3257;SDS011;1641;51.306;12.384;2022-11-20T12:32:12;13.85;;;8.20;;
3257;SDS011;1641;51.306;12.384;2022-11-20T12:37:15;14.23;;;8.85;;
3257;SDS011;1641;51.306;12.384;2022-11-20T12:39:52;16.85;;;9.85;;
3257;SDS011;1641;51.306;12.384;2022-11-20T12:42:23;15.52;;;9.35;;
3257;SDS011;1641;51.306;12.384;2022-11-20T12:48:31;14.65;;;9.05;;
3257;SDS011;1641;51.306;12.384;2022-11-20T12:57:43;19.05;;;10.50;;
3257;SDS011;1641;51.306;12.384;2022-11-20T13:00:18;21.70;;;11.35;;
3257;SDS011;1641;51.306;12.384;2022-11-20T13:05:24;22.17;;;11.00;;
3257;SDS011;1641;51.306;12.384;2022-11-20T13:07:59;16.40;;;9.85;;
3257;SDS011;1641;51.306;12.384;2022-11-20T13:10:29;15.43;;;8.70;;
3257;SDS011;1641;51.306;12.384;2022-11-20T13:13:02;16.40;;;9.15;;
3257;SDS011;1641;51.306;12.384;2022-11-20T13:15:47;14.52;;;8.70;;
3257;SDS011;1641;51.306;12.384;2022-11-20T13:18:26;15.05;;;9.25;;
3257;SDS011;1641;51.306;12.384;2022-11-20T13:20:52;13.95;;;9.00;;
3257;SDS011;1641;51.306;12.384;2022-11-20T13:23:24;14.23;;;8.88;;
3257;SDS011;1641;51.306;12.384;2022-11-20T13:25:52;10.95;;;7.50;;
3257;SDS011;1641;51.306;12.384;2022-11-20T13:28:48;14.27;;;8.77;;
3257;SDS011;1641;51.306;12.384;2022-11-20T13:31:30;13.52;;;8.07;;
3257;SDS011;1641;51.306;12.384;2022-11-20T13:33:59;15.80;;;10.00;;
3257;SDS011;1641;51.306;12.384;2022-11-20T13:36:28;16.63;;;8.80;;
3257;SDS011;1641;51.306;12.384;2022-11-20T13:38:55;15.45;;;7.85;;
3257;SDS011;1641;51.306;12.384;2022-11-20T13:41:28;12.73;;;8.27;;
3257;SDS011;1641;51.306;12.384;2022-11-20T13:44:04;12.52;;;8.48;;
3257;SDS011;1641;51.306;12.384;2022-11-20T13:46:53;12.65;;;7.82;;
3257;SDS011;1641;51.306;12.384;2022-11-20T13:52:01;12.95;;;8.10;;
3257;SDS011;1641;51.306;12.384;2022-11-20T13:54:52;13.10;;;7.55;;
3257;SDS011;1641;51.306;12.384;2022-11-20T14:00:21;15.63;;;8.30;;
3257;SDS011;1641;51.306;12.384;2022-11-20T14:02:53;13.90;;;8.35;;
3257;SDS011;1641;51.306;12.384;2022-11-20T14:05:27;16.23;;;8.35;;
3257;SDS011;1641;51.306;12.384;2022-11-20T14:07:55;17.20;;;8.30;;
3257;SDS011;1641;51.306;12.384;2022-11-20T14:10:23;18.42;;;9.75;;
3257;SDS011;1641;51.306;12.384;2022-11-20T14:12:50;13.75;;;8.55;;
3257;SDS011;1641;51.306;12.384;2022-11-20T14:17:53;16.85;;;8.90;;
3257;SDS011;1641;51.306;12.384;2022-11-20T14:20:18;17.05;;;9.13;;
3257;SDS011;1641;51.306;12.384;2022-11-20T14:22:51;16.58;;;8.98;;
3257;SDS011;1641;51.306;12.384;2022-11-20T14:27:47;16.25;;;9.32;;
3257;SDS011;1641;51.306;12.384;2022-11-20T14:30:18;15.60;;;8.75;;
3257;SDS011;1641;51.306;12.384;2022-11-20T14:32:46;31.63;;;14.82;;
3257;SDS011;1641;51.306;12.384;2022-11-20T14:35:33;18.15;;;10.55;;
3257;SDS011;1641;51.306;12.384;2022-11-20T14:38:00;19.17;;;10.90;;
3257;SDS011;1641;51.306;12.384;2022-11-20T14:40:36;33.40;;;16.65;;
3257;SDS011;1641;51.306;12.384;2022-11-20T14:46:17;30.98;;;16.23;;
3257;SDS011;1641;51.306;12.384;2022-11-20T14:48:49;29.40;;;14.68;;
3257;SDS011;1641;51.306;12.384;2022-11-20T14:51:37;19.92;;;11.40;;
3257;SDS011;1641;51.306;12.384;2022-11-20T14:54:14;17.58;;;10.82;;
3257;SDS011;1641;51.306;12.384;2022-11-20T14:57:00;20.15;;;11.77;;
3257;SDS011;1641;51.306;12.384;2022-11-20T14:59:31;18.15;;;10.57;;
3257;SDS011;1641;51.306;12.384;2022-11-20T15:02:10;24.23;;;13.10;;
3257;SDS011;1641;51.306;12.384;2022-11-20T15:04:49;31.83;;;15.48;;
3257;SDS011;1641;51.306;12.384;2022-11-20T15:07:36;21.83;;;11.60;;
3257;SDS011;1641;51.306;12.384;2022-11-20T15:12:50;26.13;;;12.95;;
3257;SDS011;1641;51.306;12.384;2022-11-20T15:15:21;22.35;;;12.15;;
3257;SDS011;1641;51.306;12.384;2022-11-20T15:17:49;24.58;;;12.82;;
3257;SDS011;1641;51.306;12.384;2022-11-20T15:20:15;25.90;;;13.02;;
3257;SDS011;1641;51.306;12.384;2022-11-20T15:22:42;25.00;;;14.02;;
3257;SDS011;1641;51.306;12.384;2022-11-20T15:25:14;29.30;;;14.55;;
3257;SDS011;1641;51.306;12.384;2022-11-20T15:27:45;29.48;;;15.68;;
3257;SDS011;1641;51.306;12.384;2022-11-20T15:30:26;29.35;;;15.57;;
3257;SDS011;1641;51.306;12.384;2022-11-20T15:32:51;26.30;;;14.55;;
3257;SDS011;1641;51.306;12.384;2022-11-20T15:35:19;28.75;;;13.90;;
3257;SDS011;1641;51.306;12.384;2022-11-20T15:37:45;23.23;;;13.07;;
3257;SDS011;1641;51.306;12.384;2022-11-20T15:40:10;24.95;;;13.93;;
3257;SDS011;1641;51.306;12.384;2022-11-20T15:42:39;25.42;;;15.30;;
3257;SDS011;1641;51.306;12.384;2022-11-20T15:45:28;25.17;;;14.45;;
3257;SDS011;1641;51.306;12.384;2022-11-20T15:47:58;21.63;;;13.18;;
3257;SDS011;1641;51.306;12.384;2022-11-20T15:50:29;26.67;;;13.10;;
3257;SDS011;1641;51.306;12.384;2022-11-20T15:53:17;24.25;;;13.27;;
3257;SDS011;1641;51.306;12.384;2022-11-20T15:55:43;27.30;;;14.90;;
3257;SDS011;1641;51.306;12.384;2022-11-20T15:58:12;27.60;;;13.35;;
3257;SDS011;1641;51.306;12.384;2022-11-20T16:00:43;27.40;;;14.30;;
3257;SDS011;1641;51.306;12.384;2022-11-20T16:03:12;25.20;;;14.32;;
3257;SDS011;1641;51.306;12.384;2022-11-20T16:05:39;24.00;;;14.63;;
3257;SDS011;1641;51.306;12.384;2022-11-20T16:08:05;24.23;;;15.13;;
3257;SDS011;1641;51.306;12.384;2022-11-20T16:10:31;26.58;;;15.10;;
3257;SDS011;1641;51.306;12.384;2022-11-20T16:12:56;25.73;;;13.93;;
3257;SDS011;1641;51.306;12.384;2022-11-20T16:15:56;24.67;;;13.50;;